sensor_id;sensor_type;location;lat;lon;timestamp;temperature;humidity
25138;DHT22;13112;50.986;4.354;2022-12-07T00:01:22;6.40;99.90
25138;DHT22;13112;50.986;4.354;2022-12-07T00:03:51;6.40;99.90
25138;DHT22;13112;50.986;4.354;2022-12-07T00:06:17;6.10;99.90
25138;DHT22;13112;50.986;4.354;2022-12-07T00:08:44;6.20;99.90
25138;DHT22;13112;50.986;4.354;2022-12-07T00:11:15;6.10;99.90
25138;DHT22;13112;50.986;4.354;2022-12-07T00:13:42;6.00;99.90
25138;DHT22;13112;50.986;4.354;2022-12-07T00:16:16;6.00;99.90
25138;DHT22;13112;50.986;4.354;2022-12-07T00:18:44;5.70;99.90
25138;DHT22;13112;50.986;4.354;2022-12-07T00:21:16;5.70;99.90
25138;DHT22;13112;50.986;4.354;2022-12-07T00:23:43;5.70;99.90
25138;DHT22;13112;50.986;4.354;2022-12-07T00:26:13;5.70;99.90
25138;DHT22;13112;50.986;4.354;2022-12-07T00:28:39;5.70;99.90
25138;DHT22;13112;50.986;4.354;2022-12-07T00:31:08;5.90;99.90
25138;DHT22;13112;50.986;4.354;2022-12-07T00:33:35;5.90;99.90
25138;DHT22;13112;50.986;4.354;2022-12-07T00:36:01;5.70;99.90
25138;DHT22;13112;50.986;4.354;2022-12-07T00:38:30;5.50;99.90
25138;DHT22;13112;50.986;4.354;2022-12-07T00:41:00;5.50;99.90
25138;DHT22;13112;50.986;4.354;2022-12-07T00:43:26;5.50;99.90
25138;DHT22;13112;50.986;4.354;2022-12-07T00:45:53;5.80;99.90
25138;DHT22;13112;50.986;4.354;2022-12-07T00:48:19;5.60;99.90
25138;DHT22;13112;50.986;4.354;2022-12-07T00:50:45;5.50;99.90
25138;DHT22;13112;50.986;4.354;2022-12-07T00:53:10;5.60;99.90
25138;DHT22;13112;50.986;4.354;2022-12-07T00:55:37;5.60;99.90
25138;DHT22;13112;50.986;4.354;2022-12-07T00:58:02;5.60;99.90
25138;DHT22;13112;50.986;4.354;2022-12-07T01:00:28;5.50;99.90
25138;DHT22;13112;50.986;4.354;2022-12-07T01:02:54;5.60;99.90
25138;DHT22;13112;50.986;4.354;2022-12-07T01:05:20;5.40;99.90
25138;DHT22;13112;50.986;4.354;2022-12-07T01:07:46;5.40;99.90
25138;DHT22;13112;50.986;4.354;2022-12-07T01:10:12;5.30;99.90
25138;DHT22;13112;50.986;4.354;2022-12-07T01:12:38;5.10;99.90
25138;DHT22;13112;50.986;4.354;2022-12-07T01:15:04;5.00;99.90
25138;DHT22;13112;50.986;4.354;2022-12-07T01:17:30;5.10;99.90
25138;DHT22;13112;50.986;4.354;2022-12-07T01:19:56;5.10;99.90
25138;DHT22;13112;50.986;4.354;2022-12-07T01:22:22;5.10;99.90
25138;DHT22;13112;50.986;4.354;2022-12-07T01:24:47;5.30;99.90
25138;DHT22;13112;50.986;4.354;2022-12-07T01:27:14;5.50;99.90
25138;DHT22;13112;50.986;4.354;2022-12-07T01:29:39;5.60;99.90
25138;DHT22;13112;50.986;4.354;2022-12-07T01:32:05;5.60;99.90
25138;DHT22;13112;50.986;4.354;2022-12-07T01:34:31;5.70;99.90
25138;DHT22;13112;50.986;4.354;2022-12-07T01:36:57;5.60;99.90
25138;DHT22;13112;50.986;4.354;2022-12-07T01:39:23;5.80;99.90
25138;DHT22;13112;50.986;4.354;2022-12-07T01:41:48;6.10;99.90
25138;DHT22;13112;50.986;4.354;2022-12-07T01:44:24;6.00;99.90
25138;DHT22;13112;50.986;4.354;2022-12-07T01:46:58;6.20;99.90
25138;DHT22;13112;50.986;4.354;2022-12-07T01:49:45;6.00;99.90
25138;DHT22;13112;50.986;4.354;2022-12-07T01:52:30;5.90;99.90
25138;DHT22;13112;50.986;4.354;2022-12-07T01:55:01;5.80;99.90
25138;DHT22;13112;50.986;4.354;2022-12-07T01:57:28;5.80;99.90
25138;DHT22;13112;50.986;4.354;2022-12-07T01:59:55;5.80;99.90
25138;DHT22;13112;50.986;4.354;2022-12-07T02:02:33;5.90;99.90
25138;DHT22;13112;50.986;4.354;2022-12-07T02:05:01;6.10;99.90
25138;DHT22;13112;50.986;4.354;2022-12-07T02:07:29;6.10;99.90
25138;DHT22;13112;50.986;4.354;2022-12-07T02:09:55;6.30;99.90
25138;DHT22;13112;50.986;4.354;2022-12-07T02:12:22;6.20;99.90
25138;DHT22;13112;50.986;4.354;2022-12-07T02:14:49;6.00;99.90
25138;DHT22;13112;50.986;4.354;2022-12-07T02:17:28;6.10;99.90
25138;DHT22;13112;50.986;4.354;2022-12-07T02:23:23;6.00;99.90
25138;DHT22;13112;50.986;4.354;2022-12-07T02:31:30;6.00;99.90
25138;DHT22;13112;50.986;4.354;2022-12-07T02:36:52;5.60;99.90
25138;DHT22;13112;50.986;4.354;2022-12-07T02:39:37;5.50;99.90
25138;DHT22;13112;50.986;4.354;2022-12-07T02:42:12;5.30;99.90
25138;DHT22;13112;50.986;4.354;2022-12-07T02:44:39;5.40;99.90
25138;DHT22;13112;50.986;4.354;2022-12-07T02:47:09;5.40;99.90
25138;DHT22;13112;50.986;4.354;2022-12-07T02:49:37;5.40;99.90
25138;DHT22;13112;50.986;4.354;2022-12-07T02:52:04;5.30;99.90
25138;DHT22;13112;50.986;4.354;2022-12-07T02:54:30;5.40;99.90
25138;DHT22;13112;50.986;4.354;2022-12-07T03:00:11;5.30;99.90
25138;DHT22;13112;50.986;4.354;2022-12-07T03:02:58;5.30;99.90
25138;DHT22;13112;50.986;4.354;2022-12-07T03:11:14;5.50;99.90
25138;DHT22;13112;50.986;4.354;2022-12-07T03:13:59;5.40;99.90
25138;DHT22;13112;50.986;4.354;2022-12-07T03:16:40;5.60;99.90
25138;DHT22;13112;50.986;4.354;2022-12-07T03:19:18;5.40;99.90
25138;DHT22;13112;50.986;4.354;2022-12-07T03:21:49;5.50;99.90
25138;DHT22;13112;50.986;4.354;2022-12-07T03:24:20;5.50;99.90
25138;DHT22;13112;50.986;4.354;2022-12-07T03:26:52;5.30;99.90
25138;DHT22;13112;50.986;4.354;2022-12-07T03:29:28;5.30;99.90
25138;DHT22;13112;50.986;4.354;2022-12-07T03:32:02;5.30;99.90
25138;DHT22;13112;50.986;4.354;2022-12-07T03:34:38;5.30;99.90
25138;DHT22;13112;50.986;4.354;2022-12-07T03:37:10;5.20;99.90
25138;DHT22;13112;50.986;4.354;2022-12-07T03:39:46;5.10;99.90
25138;DHT22;13112;50.986;4.354;2022-12-07T03:42:15;5.00;99.90
25138;DHT22;13112;50.986;4.354;2022-12-07T03:44:41;5.20;99.90
25138;DHT22;13112;50.986;4.354;2022-12-07T03:47:30;5.10;99.90
25138;DHT22;13112;50.986;4.354;2022-12-07T03:50:20;5.10;99.90
25138;DHT22;13112;50.986;4.354;2022-12-07T03:52:59;5.10;99.90
25138;DHT22;13112;50.986;4.354;2022-12-07T03:55:34;5.40;99.90
25138;DHT22;13112;50.986;4.354;2022-12-07T03:58:08;5.40;99.90
25138;DHT22;13112;50.986;4.354;2022-12-07T04:00:35;5.40;99.90
25138;DHT22;13112;50.986;4.354;2022-12-07T04:03:01;5.20;99.90
25138;DHT22;13112;50.986;4.354;2022-12-07T04:05:26;5.10;99.90
25138;DHT22;13112;50.986;4.354;2022-12-07T04:07:52;5.10;99.90
25138;DHT22;13112;50.986;4.354;2022-12-07T04:10:18;5.20;99.90
25138;DHT22;13112;50.986;4.354;2022-12-07T04:12:44;5.20;99.90
25138;DHT22;13112;50.986;4.354;2022-12-07T04:15:10;4.90;99.90
25138;DHT22;13112;50.986;4.354;2022-12-07T04:17:36;4.80;99.90
25138;DHT22;13112;50.986;4.354;2022-12-07T04:20:02;4.90;99.90
25138;DHT22;13112;50.986;4.354;2022-12-07T04:22:29;5.00;99.90
25138;DHT22;13112;50.986;4.354;2022-12-07T04:24:55;5.00;99.90
25138;DHT22;13112;50.986;4.354;2022-12-07T04:27:20;5.00;99.90
25138;DHT22;13112;50.986;4.354;2022-12-07T04:29:46;5.10;99.90
25138;DHT22;13112;50.986;4.354;2022-12-07T04:32:12;5.10;99.90
25138;DHT22;13112;50.986;4.354;2022-12-07T04:34:38;5.10;99.90
25138;DHT22;13112;50.986;4.354;2022-12-07T04:37:04;5.00;99.90
25138;DHT22;13112;50.986;4.354;2022-12-07T04:39:31;5.30;99.90
25138;DHT22;13112;50.986;4.354;2022-12-07T04:41:58;5.20;99.90
25138;DHT22;13112;50.986;4.354;2022-12-07T04:44:24;5.30;99.90
25138;DHT22;13112;50.986;4.354;2022-12-07T04:46:51;5.50;99.90
25138;DHT22;13112;50.986;4.354;2022-12-07T04:49:17;5.40;99.90
25138;DHT22;13112;50.986;4.354;2022-12-07T04:51:44;5.30;99.90
25138;DHT22;13112;50.986;4.354;2022-12-07T04:54:10;5.30;99.90
25138;DHT22;13112;50.986;4.354;2022-12-07T04:56:36;5.30;99.90
25138;DHT22;13112;50.986;4.354;2022-12-07T04:59:03;5.00;99.90
25138;DHT22;13112;50.986;4.354;2022-12-07T05:01:30;4.70;99.90
25138;DHT22;13112;50.986;4.354;2022-12-07T05:03:55;4.60;99.90
25138;DHT22;13112;50.986;4.354;2022-12-07T05:06:21;4.70;99.90
25138;DHT22;13112;50.986;4.354;2022-12-07T05:08:47;4.70;99.90
25138;DHT22;13112;50.986;4.354;2022-12-07T05:11:14;4.80;99.90
25138;DHT22;13112;50.986;4.354;2022-12-07T05:14:00;4.90;99.90
25138;DHT22;13112;50.986;4.354;2022-12-07T05:16:25;4.80;99.90
25138;DHT22;13112;50.986;4.354;2022-12-07T05:18:51;4.70;99.90
25138;DHT22;13112;50.986;4.354;2022-12-07T05:21:17;4.70;99.90
25138;DHT22;13112;50.986;4.354;2022-12-07T05:23:42;4.60;99.90
25138;DHT22;13112;50.986;4.354;2022-12-07T05:26:08;4.60;99.90
25138;DHT22;13112;50.986;4.354;2022-12-07T05:28:33;4.70;99.90
25138;DHT22;13112;50.986;4.354;2022-12-07T05:30:59;4.60;99.90
25138;DHT22;13112;50.986;4.354;2022-12-07T05:33:25;4.80;99.90
25138;DHT22;13112;50.986;4.354;2022-12-07T05:35:50;4.70;99.90
25138;DHT22;13112;50.986;4.354;2022-12-07T05:38:16;4.70;99.90
25138;DHT22;13112;50.986;4.354;2022-12-07T05:40:42;4.70;99.90
25138;DHT22;13112;50.986;4.354;2022-12-07T05:43:07;4.70;99.90
25138;DHT22;13112;50.986;4.354;2022-12-07T05:45:33;4.80;99.90
25138;DHT22;13112;50.986;4.354;2022-12-07T05:47:58;4.80;99.90
25138;DHT22;13112;50.986;4.354;2022-12-07T05:50:24;5.20;99.90
25138;DHT22;13112;50.986;4.354;2022-12-07T05:52:50;5.20;99.90
25138;DHT22;13112;50.986;4.354;2022-12-07T05:55:16;5.20;99.90
25138;DHT22;13112;50.986;4.354;2022-12-07T05:57:41;5.40;99.90
25138;DHT22;13112;50.986;4.354;2022-12-07T06:00:30;5.30;99.90
25138;DHT22;13112;50.986;4.354;2022-12-07T06:02:56;5.10;99.90
25138;DHT22;13112;50.986;4.354;2022-12-07T06:05:21;5.10;99.90
25138;DHT22;13112;50.986;4.354;2022-12-07T06:07:47;5.20;99.90
25138;DHT22;13112;50.986;4.354;2022-12-07T06:10:12;5.30;99.90
25138;DHT22;13112;50.986;4.354;2022-12-07T06:12:38;5.30;99.90
25138;DHT22;13112;50.986;4.354;2022-12-07T06:15:08;5.10;99.90
25138;DHT22;13112;50.986;4.354;2022-12-07T06:17:34;5.30;99.90
25138;DHT22;13112;50.986;4.354;2022-12-07T06:19:59;5.20;99.90
25138;DHT22;13112;50.986;4.354;2022-12-07T06:22:25;5.20;99.90
25138;DHT22;13112;50.986;4.354;2022-12-07T06:24:51;5.00;99.90
25138;DHT22;13112;50.986;4.354;2022-12-07T06:27:16;5.00;99.90
25138;DHT22;13112;50.986;4.354;2022-12-07T06:29:42;5.10;99.90
25138;DHT22;13112;50.986;4.354;2022-12-07T06:32:08;5.10;99.90
25138;DHT22;13112;50.986;4.354;2022-12-07T06:34:34;5.20;99.90
25138;DHT22;13112;50.986;4.354;2022-12-07T06:37:00;5.20;99.90
25138;DHT22;13112;50.986;4.354;2022-12-07T06:39:27;5.20;99.90
25138;DHT22;13112;50.986;4.354;2022-12-07T06:41:53;5.20;99.90
25138;DHT22;13112;50.986;4.354;2022-12-07T06:44:20;5.20;99.90
25138;DHT22;13112;50.986;4.354;2022-12-07T06:46:47;5.10;99.90
25138;DHT22;13112;50.986;4.354;2022-12-07T06:49:13;5.20;99.90
25138;DHT22;13112;50.986;4.354;2022-12-07T06:51:38;5.20;99.90
25138;DHT22;13112;50.986;4.354;2022-12-07T06:54:10;5.20;99.90
25138;DHT22;13112;50.986;4.354;2022-12-07T06:56:36;5.20;99.90
25138;DHT22;13112;50.986;4.354;2022-12-07T06:59:03;5.30;99.90
25138;DHT22;13112;50.986;4.354;2022-12-07T07:01:30;5.20;99.90
25138;DHT22;13112;50.986;4.354;2022-12-07T07:03:56;5.20;99.90
25138;DHT22;13112;50.986;4.354;2022-12-07T07:06:22;5.10;99.90
25138;DHT22;13112;50.986;4.354;2022-12-07T07:08:48;5.10;99.90
25138;DHT22;13112;50.986;4.354;2022-12-07T07:11:13;4.90;99.90
25138;DHT22;13112;50.986;4.354;2022-12-07T07:13:39;4.80;99.90
25138;DHT22;13112;50.986;4.354;2022-12-07T07:16:06;4.70;99.90
25138;DHT22;13112;50.986;4.354;2022-12-07T07:18:32;4.80;99.90
25138;DHT22;13112;50.986;4.354;2022-12-07T07:20:57;4.70;99.90
25138;DHT22;13112;50.986;4.354;2022-12-07T07:23:23;4.80;99.90
25138;DHT22;13112;50.986;4.354;2022-12-07T07:25:49;4.90;99.90
25138;DHT22;13112;50.986;4.354;2022-12-07T07:28:16;4.90;99.90
25138;DHT22;13112;50.986;4.354;2022-12-07T07:30:41;4.70;99.90
25138;DHT22;13112;50.986;4.354;2022-12-07T07:33:09;4.60;99.90
25138;DHT22;13112;50.986;4.354;2022-12-07T07:35:34;4.60;99.90
25138;DHT22;13112;50.986;4.354;2022-12-07T07:38:01;4.70;99.90
25138;DHT22;13112;50.986;4.354;2022-12-07T07:40:27;4.90;99.90
25138;DHT22;13112;50.986;4.354;2022-12-07T07:42:54;4.90;99.90
25138;DHT22;13112;50.986;4.354;2022-12-07T07:45:22;4.90;99.90
25138;DHT22;13112;50.986;4.354;2022-12-07T07:47:48;5.00;99.90
25138;DHT22;13112;50.986;4.354;2022-12-07T07:50:14;4.90;99.90
25138;DHT22;13112;50.986;4.354;2022-12-07T07:52:41;4.90;99.90
25138;DHT22;13112;50.986;4.354;2022-12-07T07:55:07;4.80;99.90
25138;DHT22;13112;50.986;4.354;2022-12-07T07:57:37;4.80;99.90
25138;DHT22;13112;50.986;4.354;2022-12-07T08:00:11;4.70;99.90
25138;DHT22;13112;50.986;4.354;2022-12-07T08:02:37;4.60;99.90
25138;DHT22;13112;50.986;4.354;2022-12-07T08:05:03;4.80;99.90
25138;DHT22;13112;50.986;4.354;2022-12-07T08:07:29;4.70;99.90
25138;DHT22;13112;50.986;4.354;2022-12-07T08:09:54;4.70;99.90
25138;DHT22;13112;50.986;4.354;2022-12-07T08:12:20;4.70;99.90
25138;DHT22;13112;50.986;4.354;2022-12-07T08:14:46;4.70;99.90
25138;DHT22;13112;50.986;4.354;2022-12-07T08:17:12;4.70;99.90
25138;DHT22;13112;50.986;4.354;2022-12-07T08:19:38;4.70;99.90
25138;DHT22;13112;50.986;4.354;2022-12-07T08:22:04;4.90;99.90
25138;DHT22;13112;50.986;4.354;2022-12-07T08:24:30;5.10;99.90
25138;DHT22;13112;50.986;4.354;2022-12-07T08:26:58;4.90;99.90
25138;DHT22;13112;50.986;4.354;2022-12-07T08:29:23;4.90;99.90
25138;DHT22;13112;50.986;4.354;2022-12-07T08:31:49;5.20;99.90
25138;DHT22;13112;50.986;4.354;2022-12-07T08:34:14;5.30;99.90
25138;DHT22;13112;50.986;4.354;2022-12-07T08:36:40;5.40;99.90
25138;DHT22;13112;50.986;4.354;2022-12-07T08:39:06;5.70;99.90
25138;DHT22;13112;50.986;4.354;2022-12-07T08:41:32;6.00;99.90
25138;DHT22;13112;50.986;4.354;2022-12-07T08:43:58;5.80;99.90
25138;DHT22;13112;50.986;4.354;2022-12-07T08:46:25;6.00;99.90
25138;DHT22;13112;50.986;4.354;2022-12-07T08:49:03;6.00;99.90
25138;DHT22;13112;50.986;4.354;2022-12-07T08:51:30;6.10;99.90
25138;DHT22;13112;50.986;4.354;2022-12-07T08:53:58;6.20;99.90
25138;DHT22;13112;50.986;4.354;2022-12-07T08:56:25;6.30;99.90
25138;DHT22;13112;50.986;4.354;2022-12-07T08:58:52;6.30;99.90
25138;DHT22;13112;50.986;4.354;2022-12-07T09:01:17;6.30;99.90
25138;DHT22;13112;50.986;4.354;2022-12-07T09:03:43;6.40;99.90
25138;DHT22;13112;50.986;4.354;2022-12-07T09:06:09;6.30;99.90
25138;DHT22;13112;50.986;4.354;2022-12-07T09:08:37;6.20;99.90
25138;DHT22;13112;50.986;4.354;2022-12-07T09:11:04;6.50;99.90
25138;DHT22;13112;50.986;4.354;2022-12-07T09:13:30;6.40;99.90
25138;DHT22;13112;50.986;4.354;2022-12-07T09:15:56;6.50;99.90
25138;DHT22;13112;50.986;4.354;2022-12-07T09:18:23;6.60;99.90
25138;DHT22;13112;50.986;4.354;2022-12-07T09:20:50;6.60;99.90
25138;DHT22;13112;50.986;4.354;2022-12-07T09:23:16;6.60;99.90
25138;DHT22;13112;50.986;4.354;2022-12-07T09:25:42;6.60;99.90
25138;DHT22;13112;50.986;4.354;2022-12-07T09:28:07;6.60;99.90
25138;DHT22;13112;50.986;4.354;2022-12-07T09:30:34;6.80;99.90
25138;DHT22;13112;50.986;4.354;2022-12-07T09:32:59;7.00;99.90
25138;DHT22;13112;50.986;4.354;2022-12-07T09:35:25;7.00;99.90
25138;DHT22;13112;50.986;4.354;2022-12-07T09:37:51;7.20;99.90
25138;DHT22;13112;50.986;4.354;2022-12-07T09:40:19;7.00;99.90
25138;DHT22;13112;50.986;4.354;2022-12-07T09:42:49;6.80;99.90
25138;DHT22;13112;50.986;4.354;2022-12-07T09:45:32;7.00;99.90
25138;DHT22;13112;50.986;4.354;2022-12-07T09:47:59;7.40;99.90
25138;DHT22;13112;50.986;4.354;2022-12-07T09:50:27;8.10;99.90
25138;DHT22;13112;50.986;4.354;2022-12-07T09:53:03;9.00;99.90
25138;DHT22;13112;50.986;4.354;2022-12-07T09:55:31;9.20;99.90
25138;DHT22;13112;50.986;4.354;2022-12-07T09:57:57;9.40;99.90
25138;DHT22;13112;50.986;4.354;2022-12-07T10:00:24;9.00;99.90
25138;DHT22;13112;50.986;4.354;2022-12-07T10:02:58;8.80;99.90
25138;DHT22;13112;50.986;4.354;2022-12-07T10:05:38;8.90;99.90
25138;DHT22;13112;50.986;4.354;2022-12-07T10:08:07;8.90;99.90
25138;DHT22;13112;50.986;4.354;2022-12-07T10:10:35;9.00;99.90
25138;DHT22;13112;50.986;4.354;2022-12-07T10:13:40;8.90;99.90
25138;DHT22;13112;50.986;4.354;2022-12-07T10:16:07;8.70;99.90
25138;DHT22;13112;50.986;4.354;2022-12-07T10:18:53;8.90;99.90
25138;DHT22;13112;50.986;4.354;2022-12-07T10:21:22;9.50;99.90
25138;DHT22;13112;50.986;4.354;2022-12-07T10:24:05;10.20;99.90
25138;DHT22;13112;50.986;4.354;2022-12-07T10:26:36;10.70;99.90
25138;DHT22;13112;50.986;4.354;2022-12-07T10:29:32;11.10;99.90
25138;DHT22;13112;50.986;4.354;2022-12-07T10:34:45;13.30;99.90
25138;DHT22;13112;50.986;4.354;2022-12-07T10:39:46;16.10;99.90
25138;DHT22;13112;50.986;4.354;2022-12-07T10:42:27;16.20;99.90
25138;DHT22;13112;50.986;4.354;2022-12-07T11:04:21;16.30;99.90
25138;DHT22;13112;50.986;4.354;2022-12-07T11:07:06;16.00;99.90
25138;DHT22;13112;50.986;4.354;2022-12-07T11:10:19;16.50;99.90
25138;DHT22;13112;50.986;4.354;2022-12-07T11:16:01;18.60;99.90
25138;DHT22;13112;50.986;4.354;2022-12-07T11:22:01;19.40;99.90
25138;DHT22;13112;50.986;4.354;2022-12-07T11:35:14;18.30;99.90
25138;DHT22;13112;50.986;4.354;2022-12-07T11:37:43;19.20;99.90
25138;DHT22;13112;50.986;4.354;2022-12-07T11:42:55;19.60;99.90
25138;DHT22;13112;50.986;4.354;2022-12-07T11:45:27;19.20;99.90
25138;DHT22;13112;50.986;4.354;2022-12-07T11:48:03;20.00;99.90
25138;DHT22;13112;50.986;4.354;2022-12-07T11:50:45;20.20;99.90
25138;DHT22;13112;50.986;4.354;2022-12-07T11:53:20;19.10;99.90
25138;DHT22;13112;50.986;4.354;2022-12-07T12:04:06;15.90;99.90
25138;DHT22;13112;50.986;4.354;2022-12-07T12:06:44;16.00;99.90
25138;DHT22;13112;50.986;4.354;2022-12-07T12:15:01;15.90;99.90
25138;DHT22;13112;50.986;4.354;2022-12-07T12:17:45;15.50;99.90
25138;DHT22;13112;50.986;4.354;2022-12-07T12:20:28;16.10;99.90
25138;DHT22;13112;50.986;4.354;2022-12-07T12:23:05;17.60;99.90
25138;DHT22;13112;50.986;4.354;2022-12-07T12:25:54;18.10;99.90
25138;DHT22;13112;50.986;4.354;2022-12-07T12:28:28;18.20;99.90
25138;DHT22;13112;50.986;4.354;2022-12-07T12:33:52;18.40;99.90
25138;DHT22;13112;50.986;4.354;2022-12-07T12:36:26;18.50;99.90
25138;DHT22;13112;50.986;4.354;2022-12-07T12:44:40;17.90;99.90
25138;DHT22;13112;50.986;4.354;2022-12-07T12:47:52;16.10;99.90
25138;DHT22;13112;50.986;4.354;2022-12-07T12:50:27;14.40;99.90
25138;DHT22;13112;50.986;4.354;2022-12-07T12:53:30;13.40;99.90
25138;DHT22;13112;50.986;4.354;2022-12-07T13:00:47;11.80;99.90
25138;DHT22;13112;50.986;4.354;2022-12-07T13:03:27;11.30;99.90
25138;DHT22;13112;50.986;4.354;2022-12-07T13:08:53;10.80;99.90
25138;DHT22;13112;50.986;4.354;2022-12-07T13:11:31;10.70;99.90
25138;DHT22;13112;50.986;4.354;2022-12-07T13:17:00;11.00;99.90
25138;DHT22;13112;50.986;4.354;2022-12-07T13:22:33;10.90;99.90
25138;DHT22;13112;50.986;4.354;2022-12-07T13:28:18;10.30;99.90
25138;DHT22;13112;50.986;4.354;2022-12-07T13:31:24;10.10;99.90
25138;DHT22;13112;50.986;4.354;2022-12-07T13:33:50;11.10;99.90
25138;DHT22;13112;50.986;4.354;2022-12-07T13:36:27;11.20;99.90
25138;DHT22;13112;50.986;4.354;2022-12-07T13:38:56;11.20;99.90
25138;DHT22;13112;50.986;4.354;2022-12-07T13:41:25;10.90;99.90
25138;DHT22;13112;50.986;4.354;2022-12-07T13:43:54;10.60;99.90
25138;DHT22;13112;50.986;4.354;2022-12-07T13:49:23;9.80;99.90
25138;DHT22;13112;50.986;4.354;2022-12-07T13:51:49;9.20;99.90
25138;DHT22;13112;50.986;4.354;2022-12-07T13:54:16;8.80;99.90
25138;DHT22;13112;50.986;4.354;2022-12-07T13:56:42;8.50;99.90
25138;DHT22;13112;50.986;4.354;2022-12-07T13:59:17;8.10;99.90
25138;DHT22;13112;50.986;4.354;2022-12-07T14:01:45;7.90;99.90
25138;DHT22;13112;50.986;4.354;2022-12-07T14:04:27;7.80;99.90
25138;DHT22;13112;50.986;4.354;2022-12-07T14:06:54;7.70;99.90
25138;DHT22;13112;50.986;4.354;2022-12-07T14:09:26;7.70;99.90
25138;DHT22;13112;50.986;4.354;2022-12-07T14:11:53;7.70;99.90
25138;DHT22;13112;50.986;4.354;2022-12-07T14:14:28;7.70;99.90
25138;DHT22;13112;50.986;4.354;2022-12-07T14:17:08;7.80;99.90
25138;DHT22;13112;50.986;4.354;2022-12-07T14:19:50;7.60;99.90
25138;DHT22;13112;50.986;4.354;2022-12-07T14:22:34;7.60;99.90
25138;DHT22;13112;50.986;4.354;2022-12-07T14:25:19;7.60;99.90
25138;DHT22;13112;50.986;4.354;2022-12-07T14:27:56;7.70;99.90
25138;DHT22;13112;50.986;4.354;2022-12-07T14:30:29;7.70;99.90
25138;DHT22;13112;50.986;4.354;2022-12-07T14:33:00;7.80;99.90
25138;DHT22;13112;50.986;4.354;2022-12-07T14:35:27;7.70;99.90
25138;DHT22;13112;50.986;4.354;2022-12-07T14:37:53;7.70;99.90
25138;DHT22;13112;50.986;4.354;2022-12-07T14:40:29;7.80;99.90
25138;DHT22;13112;50.986;4.354;2022-12-07T14:43:02;7.70;99.90
25138;DHT22;13112;50.986;4.354;2022-12-07T14:45:28;7.70;99.90
25138;DHT22;13112;50.986;4.354;2022-12-07T14:47:54;7.60;99.90
25138;DHT22;13112;50.986;4.354;2022-12-07T14:50:21;7.60;99.90
25138;DHT22;13112;50.986;4.354;2022-12-07T14:52:56;7.60;99.90
25138;DHT22;13112;50.986;4.354;2022-12-07T14:55:27;7.60;99.90
25138;DHT22;13112;50.986;4.354;2022-12-07T14:57:53;7.70;99.90
25138;DHT22;13112;50.986;4.354;2022-12-07T15:00:20;7.70;99.90
25138;DHT22;13112;50.986;4.354;2022-12-07T15:02:47;7.70;99.90
25138;DHT22;13112;50.986;4.354;2022-12-07T15:05:14;7.70;99.90
25138;DHT22;13112;50.986;4.354;2022-12-07T15:07:40;7.70;99.90
25138;DHT22;13112;50.986;4.354;2022-12-07T15:10:09;7.80;99.90
25138;DHT22;13112;50.986;4.354;2022-12-07T15:12:39;7.70;99.90
25138;DHT22;13112;50.986;4.354;2022-12-07T15:15:05;7.80;99.90
25138;DHT22;13112;50.986;4.354;2022-12-07T15:17:33;7.80;99.90
25138;DHT22;13112;50.986;4.354;2022-12-07T15:19:59;7.60;99.90
25138;DHT22;13112;50.986;4.354;2022-12-07T15:22:25;7.60;99.90
25138;DHT22;13112;50.986;4.354;2022-12-07T15:24:50;7.70;99.90
25138;DHT22;13112;50.986;4.354;2022-12-07T15:27:16;7.70;99.90
25138;DHT22;13112;50.986;4.354;2022-12-07T15:29:42;7.70;99.90
25138;DHT22;13112;50.986;4.354;2022-12-07T15:32:07;7.80;99.90
25138;DHT22;13112;50.986;4.354;2022-12-07T15:34:33;7.70;99.90
25138;DHT22;13112;50.986;4.354;2022-12-07T15:36:59;7.60;99.90
25138;DHT22;13112;50.986;4.354;2022-12-07T15:39:25;7.60;99.90
25138;DHT22;13112;50.986;4.354;2022-12-07T15:41:50;7.70;99.90
25138;DHT22;13112;50.986;4.354;2022-12-07T15:44:16;7.50;99.90
25138;DHT22;13112;50.986;4.354;2022-12-07T15:47:00;7.40;99.90
25138;DHT22;13112;50.986;4.354;2022-12-07T15:49:27;7.40;99.90
25138;DHT22;13112;50.986;4.354;2022-12-07T15:51:53;7.50;99.90
25138;DHT22;13112;50.986;4.354;2022-12-07T15:54:22;7.50;99.90
25138;DHT22;13112;50.986;4.354;2022-12-07T15:56:48;7.50;99.90
25138;DHT22;13112;50.986;4.354;2022-12-07T15:59:14;7.50;99.90
25138;DHT22;13112;50.986;4.354;2022-12-07T16:01:40;7.40;99.90
25138;DHT22;13112;50.986;4.354;2022-12-07T16:04:05;7.50;99.90
25138;DHT22;13112;50.986;4.354;2022-12-07T16:06:31;7.70;99.90
25138;DHT22;13112;50.986;4.354;2022-12-07T16:08:57;7.60;99.90
25138;DHT22;13112;50.986;4.354;2022-12-07T16:11:23;7.70;99.90
25138;DHT22;13112;50.986;4.354;2022-12-07T16:13:49;7.60;99.90
25138;DHT22;13112;50.986;4.354;2022-12-07T16:16:16;7.50;99.90
25138;DHT22;13112;50.986;4.354;2022-12-07T16:18:43;7.40;99.90
25138;DHT22;13112;50.986;4.354;2022-12-07T16:21:10;7.30;99.90
25138;DHT22;13112;50.986;4.354;2022-12-07T16:23:35;7.20;99.90
25138;DHT22;13112;50.986;4.354;2022-12-07T16:26:10;7.00;99.90
25138;DHT22;13112;50.986;4.354;2022-12-07T16:28:36;7.00;99.90
25138;DHT22;13112;50.986;4.354;2022-12-07T16:31:11;7.20;99.90
25138;DHT22;13112;50.986;4.354;2022-12-07T16:33:38;7.20;99.90
25138;DHT22;13112;50.986;4.354;2022-12-07T16:36:06;7.30;99.90
25138;DHT22;13112;50.986;4.354;2022-12-07T16:38:32;7.20;99.90
25138;DHT22;13112;50.986;4.354;2022-12-07T16:40:57;7.10;99.90
25138;DHT22;13112;50.986;4.354;2022-12-07T16:43:23;7.10;99.90
25138;DHT22;13112;50.986;4.354;2022-12-07T16:45:49;7.10;99.90
25138;DHT22;13112;50.986;4.354;2022-12-07T16:48:16;7.10;99.90
25138;DHT22;13112;50.986;4.354;2022-12-07T16:50:42;7.20;99.90
25138;DHT22;13112;50.986;4.354;2022-12-07T16:53:12;7.10;99.90
25138;DHT22;13112;50.986;4.354;2022-12-07T16:55:40;7.10;99.90
25138;DHT22;13112;50.986;4.354;2022-12-07T16:58:07;7.10;99.90
25138;DHT22;13112;50.986;4.354;2022-12-07T17:00:32;7.10;99.90
25138;DHT22;13112;50.986;4.354;2022-12-07T17:02:58;7.00;99.90
25138;DHT22;13112;50.986;4.354;2022-12-07T17:05:30;6.90;99.90
25138;DHT22;13112;50.986;4.354;2022-12-07T17:07:56;6.80;99.90
25138;DHT22;13112;50.986;4.354;2022-12-07T17:10:23;6.70;99.90
25138;DHT22;13112;50.986;4.354;2022-12-07T17:12:49;6.70;99.90
25138;DHT22;13112;50.986;4.354;2022-12-07T17:15:15;6.80;99.90
25138;DHT22;13112;50.986;4.354;2022-12-07T17:20:16;7.10;99.90
25138;DHT22;13112;50.986;4.354;2022-12-07T17:22:42;7.00;99.90
25138;DHT22;13112;50.986;4.354;2022-12-07T17:25:08;7.10;99.90
25138;DHT22;13112;50.986;4.354;2022-12-07T17:27:34;7.20;99.90
25138;DHT22;13112;50.986;4.354;2022-12-07T17:30:00;7.20;99.90
25138;DHT22;13112;50.986;4.354;2022-12-07T17:32:26;7.20;99.90
25138;DHT22;13112;50.986;4.354;2022-12-07T17:34:52;7.10;99.90
25138;DHT22;13112;50.986;4.354;2022-12-07T17:37:17;7.20;99.90
25138;DHT22;13112;50.986;4.354;2022-12-07T17:39:43;7.00;99.90
25138;DHT22;13112;50.986;4.354;2022-12-07T17:42:09;6.90;99.90
25138;DHT22;13112;50.986;4.354;2022-12-07T17:44:53;6.80;99.90
25138;DHT22;13112;50.986;4.354;2022-12-07T17:47:19;6.80;99.90
25138;DHT22;13112;50.986;4.354;2022-12-07T17:49:46;6.80;99.90